ADDS METAR Data INFO
IDs: Format: Raw Decoded Include TAF

Data at: 1314 UTC 19 Jul 2018

METAR for:KLEE (Leesburg Muni, FL, US)
Text:KLEE 191253Z 20005KT 10SM CLR 28/26 A3000 RMK AO2 SLP157 T02780256
Temperature: 27.8°C ( 82°F)
Dewpoint: 25.6°C ( 78°F) [RH = 88%]
Pressure (altimeter):30.00 inches Hg (1016.0 mb) [Sea level pressure: 1015.7 mb]
Winds:from the SSW (200 degrees) at 6 MPH (5 knots; 2.6 m/s)
Visibility:10 or more sm (16+ km)
Ceiling:at least 12,000 feet AGL
Clouds:sky clear below 12,000 feet AGL